Time,TemperatureF,DewpointF,PressureIn,WindDirection,WindDirectionDegrees,WindSpeedMPH,WindSpeedGustMPH,Humidity,HourlyPrecipIn,Conditions,Clouds,dailyrainin,SoftwareType,DateUTC
2013-01-31 00:00:00,43.7,37.0,30.23,NNW,346,0.0,0.0,77,0.00,,,0.00,Wunderground v.1.13,2013-01-31 08:00:00,
2013-01-31 00:05:00,43.7,37.3,30.23,NNW,346,0.0,0.0,78,0.00,,,0.00,Wunderground v.1.13,2013-01-31 08:05:00,
2013-01-31 00:15:00,43.4,37.0,30.24,NNW,346,0.0,0.0,78,0.00,,,0.00,Wunderground v.1.13,2013-01-31 08:15:00,
2013-01-31 00:25:00,43.2,36.8,30.23,NNW,346,0.0,0.0,78,0.00,,,0.00,Wunderground v.1.13,2013-01-31 08:25:00,
2013-01-31 00:30:00,43.1,36.4,30.23,NNW,346,0.0,0.0,77,0.00,,,0.00,Wunderground v.1.13,2013-01-31 08:30:00,
2013-01-31 00:40:00,42.9,36.2,30.23,NNW,345,0.0,0.0,77,0.00,,,0.00,Wunderground v.1.13,2013-01-31 08:40:00,
2013-01-31 00:50:00,42.7,36.0,30.23,NNW,346,0.0,0.0,77,0.00,,,0.00,Wunderground v.1.13,2013-01-31 08:50:00,
2013-01-31 01:00:00,42.5,35.8,30.23,NNW,346,0.0,0.0,77,0.00,,,0.00,Wunderground v.1.13,2013-01-31 09:00:00,
2013-01-31 01:05:00,42.4,35.7,30.23,NNW,345,0.0,0.0,77,0.00,,,0.00,Wunderground v.1.13,2013-01-31 09:05:00,
2013-01-31 01:10:00,42.3,35.6,30.23,NNW,346,0.0,0.0,77,0.00,,,0.00,Wunderground v.1.13,2013-01-31 09:10:00,
2013-01-31 01:20:00,42.2,35.8,30.23,NNW,346,0.0,0.0,78,0.00,,,0.00,Wunderground v.1.13,2013-01-31 09:20:00,
2013-01-31 01:30:00,42.0,35.6,30.23,NNW,345,0.0,0.0,78,0.00,,,0.00,Wunderground v.1.13,2013-01-31 09:30:00,
2013-01-31 01:40:00,41.8,35.4,30.23,NNW,346,0.0,0.0,78,0.00,,,0.00,Wunderground v.1.13,2013-01-31 09:40:00,
2013-01-31 01:45:00,41.8,35.4,30.23,NNW,346,0.0,0.0,78,0.00,,,0.00,Wunderground v.1.13,2013-01-31 09:45:00,
2013-01-31 01:55:00,41.6,35.2,30.23,NNW,345,0.0,0.0,78,0.00,,,0.00,Wunderground v.1.13,2013-01-31 09:55:00,
2013-01-31 02:05:00,41.4,35.1,30.23,NNW,345,0.0,0.0,78,0.00,,,0.00,Wunderground v.1.13,2013-01-31 10:05:00,
2013-01-31 02:10:00,41.4,35.1,30.23,NNW,346,0.0,0.0,78,0.00,,,0.00,Wunderground v.1.13,2013-01-31 10:10:00,
2013-01-31 02:20:00,41.2,34.9,30.23,NNW,346,0.0,0.0,78,0.00,,,0.00,Wunderground v.1.13,2013-01-31 10:20:00,
2013-01-31 02:30:00,41.1,34.8,30.22,NNW,345,0.0,0.0,78,0.00,,,0.00,Wunderground v.1.13,2013-01-31 10:30:00,
2013-01-31 02:40:00,41.0,34.7,30.22,NNW,346,0.0,0.0,78,0.00,,,0.00,Wunderground v.1.13,2013-01-31 10:40:00,
2013-01-31 02:45:00,40.9,34.6,30.22,NNW,346,0.0,0.0,78,0.00,,,0.00,Wunderground v.1.13,2013-01-31 10:45:00,
2013-01-31 02:50:00,40.9,34.6,30.22,NNW,345,0.0,0.0,78,0.00,,,0.00,Wunderground v.1.13,2013-01-31 10:50:00,
2013-01-31 03:00:00,40.7,34.4,30.22,NNW,346,0.0,0.0,78,0.00,,,0.00,Wunderground v.1.13,2013-01-31 11:00:00,
2013-01-31 03:10:00,40.6,34.6,30.22,NNW,346,0.0,0.0,79,0.00,,,0.00,Wunderground v.1.13,2013-01-31 11:10:00,
2013-01-31 03:20:00,40.5,34.5,30.22,NNW,346,0.0,0.0,79,0.00,,,0.00,Wunderground v.1.13,2013-01-31 11:20:00,
2013-01-31 03:25:00,40.4,34.4,30.22,NNW,346,0.0,0.0,79,0.00,,,0.00,Wunderground v.1.13,2013-01-31 11:25:00,
2013-01-31 03:35:00,40.2,34.2,30.22,NNW,345,0.0,0.0,79,0.00,,,0.00,Wunderground v.1.13,2013-01-31 11:35:00,
2013-01-31 03:40:00,40.2,34.2,30.22,NNW,346,0.0,0.0,79,0.00,,,0.00,Wunderground v.1.13,2013-01-31 11:40:00,
2013-01-31 03:50:00,40.0,34.0,30.21,NNW,345,0.0,0.0,79,0.00,,,0.00,Wunderground v.1.13,2013-01-31 11:50:00,
2013-01-31 04:00:00,39.9,33.9,30.21,NNW,346,0.0,0.0,79,0.00,,,0.00,Wunderground v.1.13,2013-01-31 12:00:00,
2013-01-31 04:05:00,39.8,33.8,30.21,NNW,346,0.0,0.0,79,0.00,,,0.00,Wunderground v.1.13,2013-01-31 12:05:00,
2013-01-31 04:15:00,39.7,33.7,30.21,NNW,346,0.0,0.0,79,0.00,,,0.00,Wunderground v.1.13,2013-01-31 12:15:00,
2013-01-31 04:25:00,39.5,33.5,30.21,NNW,345,0.0,0.0,79,0.00,,,0.00,Wunderground v.1.13,2013-01-31 12:25:00,
2013-01-31 04:30:00,39.4,33.4,30.22,NNW,346,0.0,0.0,79,0.00,,,0.00,Wunderground v.1.13,2013-01-31 12:30:00,
2013-01-31 04:40:00,39.3,33.6,30.22,NNW,346,0.0,0.0,80,0.00,,,0.00,Wunderground v.1.13,2013-01-31 12:40:00,
2013-01-31 04:50:00,39.2,33.5,30.22,NNW,345,0.0,0.0,80,0.00,,,0.00,Wunderground v.1.13,2013-01-31 12:50:00,
2013-01-31 05:00:00,39.1,33.5,30.22,NNW,345,0.0,0.0,80,0.00,,,0.00,Wunderground v.1.13,2013-01-31 13:00:00,
2013-01-31 05:10:00,39.0,33.4,30.22,NNW,346,0.0,0.0,80,0.00,,,0.00,Wunderground v.1.13,2013-01-31 13:10:00,
2013-01-31 05:15:00,38.9,33.3,30.22,NNW,346,0.0,0.0,80,0.00,,,0.00,Wunderground v.1.13,2013-01-31 13:15:00,
2013-01-31 05:25:00,38.8,33.2,30.22,NNW,345,0.0,0.0,80,0.00,,,0.00,Wunderground v.1.13,2013-01-31 13:25:00,
2013-01-31 05:30:00,38.8,33.2,30.21,NNW,346,0.0,0.0,80,0.00,,,0.00,Wunderground v.1.13,2013-01-31 13:30:00,
2013-01-31 05:40:00,38.7,33.1,30.21,NNW,346,0.0,0.0,80,0.00,,,0.00,Wunderground v.1.13,2013-01-31 13:40:00,
2013-01-31 05:50:00,38.7,33.1,30.22,NNW,345,0.0,0.0,80,0.00,,,0.00,Wunderground v.1.13,2013-01-31 13:50:00,
2013-01-31 06:00:00,38.6,33.0,30.21,NNW,346,0.0,0.0,80,0.00,,,0.00,Wunderground v.1.13,2013-01-31 14:00:00,
2013-01-31 06:09:00,38.6,33.0,30.21,NNW,345,0.0,0.0,80,0.00,,,0.00,Wunderground v.1.13,2013-01-31 14:09:00,
2013-01-31 06:15:00,38.6,33.0,30.21,NNW,346,0.0,0.0,80,0.00,,,0.00,Wunderground v.1.13,2013-01-31 14:15:00,
2013-01-31 06:20:00,38.6,33.0,30.21,NNW,345,0.0,0.0,80,0.00,,,0.00,Wunderground v.1.13,2013-01-31 14:20:00,
2013-01-31 06:30:00,38.5,32.9,30.22,NNW,346,0.0,0.0,80,0.00,,,0.00,Wunderground v.1.13,2013-01-31 14:30:00,
2013-01-31 06:40:00,38.4,33.1,30.22,NNW,345,0.0,0.0,81,0.00,,,0.00,Wunderground v.1.13,2013-01-31 14:40:00,
2013-01-31 06:50:00,38.4,33.1,30.22,NNW,346,0.0,0.0,81,0.00,,,0.00,Wunderground v.1.13,2013-01-31 14:50:00,
2013-01-31 06:55:00,38.4,33.1,30.22,NNW,345,0.0,0.0,81,0.00,,,0.00,Wunderground v.1.13,2013-01-31 14:55:00,
2013-01-31 07:05:00,38.3,33.0,30.22,NNW,346,0.0,0.0,81,0.00,,,0.00,Wunderground v.1.13,2013-01-31 15:05:00,
2013-01-31 07:10:00,38.3,33.0,30.23,NNW,345,0.0,0.0,81,0.00,,,0.00,Wunderground v.1.13,2013-01-31 15:10:00,
2013-01-31 07:20:00,38.2,32.9,30.23,NNW,346,0.0,0.0,81,0.00,,,0.00,Wunderground v.1.13,2013-01-31 15:20:00,
2013-01-31 07:30:00,38.1,32.8,30.23,NNW,346,0.0,0.0,81,0.00,,,0.00,Wunderground v.1.13,2013-01-31 15:30:00,
2013-01-31 07:40:00,38.0,32.7,30.23,NNW,346,0.0,0.0,81,0.00,,,0.00,Wunderground v.1.13,2013-01-31 15:40:00,
2013-01-31 07:45:00,37.9,32.6,30.23,NNW,346,0.0,0.0,81,0.00,,,0.00,Wunderground v.1.13,2013-01-31 15:45:00,
2013-01-31 07:50:00,37.9,32.6,30.24,NNW,346,0.0,0.0,81,0.00,,,0.00,Wunderground v.1.13,2013-01-31 15:50:00,
2013-01-31 08:00:00,37.9,32.6,30.24,NNW,346,0.0,0.0,81,0.00,,,0.00,Wunderground v.1.13,2013-01-31 16:00:00,
2013-01-31 08:10:00,37.9,32.6,30.23,NNW,345,0.0,0.0,81,0.00,,,0.00,Wunderground v.1.13,2013-01-31 16:10:00,
2013-01-31 08:15:00,38.0,32.7,30.23,NNW,346,0.0,0.0,81,0.00,,,0.00,Wunderground v.1.13,2013-01-31 16:15:00,
2013-01-31 08:25:00,38.0,33.0,30.24,NNW,345,0.0,0.0,82,0.00,,,0.00,Wunderground v.1.13,2013-01-31 16:25:00,
2013-01-31 08:35:00,38.3,33.3,30.24,NNW,346,0.0,0.0,82,0.00,,,0.00,Wunderground v.1.13,2013-01-31 16:35:00,
2013-01-31 08:45:00,38.6,33.9,30.24,NNW,346,0.0,0.0,83,0.00,,,0.00,Wunderground v.1.13,2013-01-31 16:45:00,
2013-01-31 08:50:00,38.8,34.1,30.24,NNW,345,0.0,0.0,83,0.00,,,0.00,Wunderground v.1.13,2013-01-31 16:50:00,
2013-01-31 09:00:00,39.4,35.0,30.24,NNW,345,0.0,0.0,84,0.00,,,0.00,Wunderground v.1.13,2013-01-31 17:00:00,
2013-01-31 09:05:00,39.7,35.3,30.23,NNW,346,0.0,0.0,84,0.00,,,0.00,Wunderground v.1.13,2013-01-31 17:05:00,
2013-01-31 09:15:00,40.6,36.4,30.23,NNW,346,0.0,0.0,85,0.00,,,0.00,Wunderground v.1.13,2013-01-31 17:15:00,
2013-01-31 09:20:00,41.1,36.9,30.24,NNW,346,0.0,0.0,85,0.00,,,0.00,Wunderground v.1.13,2013-01-31 17:20:00,
2013-01-31 09:30:00,42.2,38.3,30.24,NNW,346,0.0,0.0,86,0.00,,,0.00,Wunderground v.1.13,2013-01-31 17:30:00,
2013-01-31 09:35:00,42.7,38.8,30.24,NNW,346,0.0,0.0,86,0.00,,,0.00,Wunderground v.1.13,2013-01-31 17:35:00,
2013-01-31 09:45:00,43.7,40.1,30.24,NNW,346,0.0,0.0,87,0.00,,,0.00,Wunderground v.1.13,2013-01-31 17:45:00,
2013-01-31 09:50:00,44.2,40.6,30.24,NNW,346,0.0,0.0,87,0.00,,,0.00,Wunderground v.1.13,2013-01-31 17:50:00,
2013-01-31 10:00:00,45.0,41.4,30.24,NNW,345,0.0,0.0,87,0.00,,,0.00,Wunderground v.1.13,2013-01-31 18:00:00,
2013-01-31 10:10:00,45.9,42.2,30.24,NNE,15,0.0,0.0,87,0.00,,,0.00,Wunderground v.1.13,2013-01-31 18:10:00,
2013-01-31 10:15:00,46.4,43.0,30.24,NNE,15,0.0,0.0,88,0.00,,,0.00,Wunderground v.1.13,2013-01-31 18:15:00,
2013-01-31 10:25:00,47.1,43.7,30.24,NNE,15,0.0,0.0,88,0.00,,,0.00,Wunderground v.1.13,2013-01-31 18:25:00,
2013-01-31 10:35:00,47.9,44.5,30.24,ENE,74,0.0,0.0,88,0.00,,,0.00,Wunderground v.1.13,2013-01-31 18:35:00,
2013-01-31 10:40:00,48.3,44.9,30.24,ENE,74,0.0,0.0,88,0.00,,,0.00,Wunderground v.1.13,2013-01-31 18:40:00,
2013-01-31 10:50:00,51.1,47.1,30.24,ENE,74,0.0,0.0,86,0.00,,,0.00,Wunderground v.1.13,2013-01-31 18:50:00,
2013-01-31 11:00:00,53.3,45.9,30.23,ENE,74,0.0,0.0,76,0.00,,,0.00,Wunderground v.1.13,2013-01-31 19:00:00,
2013-01-31 11:10:00,53.6,45.5,30.23,ENE,74,0.0,0.0,74,0.00,,,0.00,Wunderground v.1.13,2013-01-31 19:10:00,
2013-01-31 11:15:00,53.6,45.5,30.22,ENE,74,0.0,0.0,74,0.00,,,0.00,Wunderground v.1.13,2013-01-31 19:15:00,
2013-01-31 11:20:00,53.7,44.9,30.22,ENE,74,0.0,0.0,72,0.00,,,0.00,Wunderground v.1.13,2013-01-31 19:20:00,
2013-01-31 11:30:00,53.7,44.5,30.22,ENE,73,0.0,0.0,71,0.00,,,0.00,Wunderground v.1.13,2013-01-31 19:30:00,
2013-01-31 11:40:00,54.2,44.2,30.22,NNW,342,0.0,0.0,69,0.00,,,0.00,Wunderground v.1.13,2013-01-31 19:40:00,
2013-01-31 11:50:00,54.7,44.3,30.21,East,83,0.0,0.0,68,0.00,,,0.00,Wunderground v.1.13,2013-01-31 19:50:00,
2013-01-31 12:00:00,55.1,44.3,30.21,East,83,0.0,0.0,67,0.00,,,0.00,Wunderground v.1.13,2013-01-31 20:00:00,
2013-01-31 12:10:00,55.6,44.4,30.20,East,83,0.0,0.0,66,0.00,,,0.00,Wunderground v.1.13,2013-01-31 20:10:00,
2013-01-31 12:15:00,55.8,45.0,30.20,East,83,0.0,0.0,67,0.00,,,0.00,Wunderground v.1.13,2013-01-31 20:15:00,
2013-01-31 12:25:00,56.1,44.5,30.20,East,84,0.0,0.0,65,0.00,,,0.00,Wunderground v.1.13,2013-01-31 20:25:00,
2013-01-31 12:30:00,56.3,44.3,30.19,SE,125,0.0,0.0,64,0.00,,,0.00,Wunderground v.1.13,2013-01-31 20:30:00,
2013-01-31 12:40:00,56.8,43.9,30.19,ESE,117,0.0,0.0,62,0.00,,,0.00,Wunderground v.1.13,2013-01-31 20:40:00,
2013-01-31 12:50:00,57.3,44.4,30.18,ESE,103,0.0,0.0,62,0.00,,,0.00,Wunderground v.1.13,2013-01-31 20:50:00,
2013-01-31 13:00:00,57.8,44.4,30.18,ESE,108,0.0,0.0,61,0.00,,,0.00,Wunderground v.1.13,2013-01-31 21:00:00,
2013-01-31 13:10:00,58.3,44.5,30.17,East,100,0.0,0.0,60,0.00,,,0.00,Wunderground v.1.13,2013-01-31 21:10:00,
2013-01-31 13:20:00,58.7,44.8,30.17,ESE,110,0.0,0.0,60,0.00,,,0.00,Wunderground v.1.13,2013-01-31 21:20:00,
2013-01-31 13:30:00,59.0,44.7,30.16,SE,132,0.0,0.0,59,0.00,,,0.00,Wunderground v.1.13,2013-01-31 21:30:00,